Time;durP1;ratioP1;P1;durP2;ratioP2;P2;SDS_P1;SDS_P2;PMS_P1;PMS_P2;Temp;Humidity;BMP_temperature;BMP_pressure;BME280_temperature;BME280_humidity;BME280_pressure;Samples;Min_cycle;Max_cycle;Signal;HPM_P1;HPM_P2
2022/12/14 00:01:41;;;;;;;59.87;49.43;;;;;;;-4.56;100.00;100651.19;5094590;28;20440;-48
2022/12/14 00:04:15;;;;;;;59.77;50.40;;;;;;;-4.57;100.00;100646.13;5094419;28;20513;-48
2022/12/14 00:06:43;;;;;;;56.13;49.20;;;;;;;-4.58;100.00;100649.63;5093776;28;20461;-53
2022/12/14 00:09:12;;;;;;;55.57;49.17;;;;;;;-4.59;100.00;100637.56;5094220;28;20989;-47
2022/12/14 00:11:40;;;;;;;60.70;48.87;;;;;;;-4.60;100.00;100638.50;5094149;28;20442;-51
2022/12/14 00:14:07;;;;;;;62.37;49.07;;;;;;;-4.62;100.00;100633.41;5094105;28;20476;-49
2022/12/14 00:16:36;;;;;;;54.23;46.47;;;;;;;-4.64;100.00;100626.63;5093687;28;20457;-47
2022/12/14 00:19:04;;;;;;;58.23;49.30;;;;;;;-4.65;100.00;100630.16;5112174;28;20444;-48
2022/12/14 00:21:32;;;;;;;57.03;51.00;;;;;;;-4.68;100.00;100628.59;5094779;28;20429;-46
2022/12/14 00:24:00;;;;;;;55.20;49.40;;;;;;;-4.69;100.00;100620.91;5094004;28;20429;-46
2022/12/14 00:26:31;;;;;;;55.90;49.97;;;;;;;-4.73;100.00;100607.28;5093248;28;20454;-46
2022/12/14 00:29:00;;;;;;;54.10;48.23;;;;;;;-4.71;100.00;100620.16;5094089;28;20450;-47
2022/12/14 00:31:28;;;;;;;54.43;48.50;;;;;;;-4.74;100.00;100613.41;5094035;28;20437;-49
2022/12/14 00:33:56;;;;;;;57.13;49.50;;;;;;;-4.75;100.00;100616.13;5093906;28;20469;-47
2022/12/14 00:36:24;;;;;;;63.43;50.80;;;;;;;-4.78;100.00;100608.53;5093074;28;20480;-50
2022/12/14 00:38:51;;;;;;;56.87;50.60;;;;;;;-4.80;100.00;100611.22;5093658;28;20457;-48
2022/12/14 00:41:19;;;;;;;62.03;50.63;;;;;;;-4.82;100.00;100612.25;5093024;28;20529;-51
2022/12/14 00:43:48;;;;;;;53.43;47.70;;;;;;;-4.83;100.00;100603.59;5093680;28;20928;-49
2022/12/14 00:46:16;;;;;;;53.43;48.43;;;;;;;-4.84;100.00;100608.94;5093133;28;20457;-51
2022/12/14 00:48:45;;;;;;;61.73;50.20;;;;;;;-4.85;100.00;100605.50;5093545;28;20864;-51
2022/12/14 00:51:13;;;;;;;56.10;48.57;;;;;;;-4.84;100.00;100607.16;5093486;28;21034;-47
2022/12/14 00:53:41;;;;;;;53.33;47.57;;;;;;;-4.85;100.00;100596.84;5093582;28;20594;-49
2022/12/14 00:56:10;;;;;;;55.37;49.43;;;;;;;-4.85;100.00;100605.50;5092912;28;20836;-49
2022/12/14 00:58:38;;;;;;;56.63;48.23;;;;;;;-4.85;100.00;100599.44;5093315;28;20437;-50
2022/12/14 01:01:08;;;;;;;57.77;50.90;;;;;;;-4.90;100.00;100591.97;5093325;28;20444;-48
2022/12/14 01:03:36;;;;;;;54.03;48.23;;;;;;;-4.90;100.00;100598.94;5093198;28;20924;-53
2022/12/14 01:06:04;;;;;;;57.13;50.30;;;;;;;-4.91;100.00;100589.47;5092625;28;20461;-47
2022/12/14 01:08:34;;;;;;;57.10;50.03;;;;;;;-4.92;100.00;100600.78;5093247;28;20456;-48
2022/12/14 01:11:05;;;;;;;62.37;48.93;;;;;;;-4.94;100.00;100594.88;5093210;28;20437;-48
2022/12/14 01:13:33;;;;;;;55.90;50.10;;;;;;;-4.94;100.00;100592.25;5092991;28;20528;-48
2022/12/14 01:16:05;;;;;;;52.60;47.10;;;;;;;-4.96;100.00;100588.94;5092323;28;20465;-49
2022/12/14 01:18:35;;;;;;;60.87;48.53;;;;;;;-4.97;100.00;100588.09;5106403;28;20935;-49
2022/12/14 01:21:14;;;;;;;55.20;49.20;;;;;;;-4.97;100.00;100582.06;5113534;28;20440;-48
2022/12/14 01:23:42;;;;;;;70.80;49.10;;;;;;;-5.02;100.00;100580.59;5113330;28;20529;-47
2022/12/14 01:26:11;;;;;;;55.33;49.30;;;;;;;-5.02;100.00;100591.00;5112458;27;20538;-47
2022/12/14 01:28:39;;;;;;;54.03;48.13;;;;;;;-5.03;100.00;100591.94;5112965;28;20990;-48
2022/12/14 01:31:08;;;;;;;59.30;48.17;;;;;;;-5.04;100.00;100586.81;5113321;27;20459;-50
2022/12/14 01:33:38;;;;;;;60.77;51.03;;;;;;;-5.06;100.00;100584.34;5112980;28;20517;-46
2022/12/14 01:36:08;;;;;;;65.83;51.37;;;;;;;-5.07;100.00;100585.28;5112309;27;20465;-48
2022/12/14 01:38:36;;;;;;;59.90;48.20;;;;;;;-5.04;100.00;100590.25;5112992;28;20433;-49
2022/12/14 01:41:04;;;;;;;57.33;49.57;;;;;;;-5.05;100.00;100575.59;5112838;28;20444;-54
2022/12/14 01:43:54;;;;;;;54.37;48.70;;;;;;;-5.06;100.00;100576.53;5112766;28;20439;-49
2022/12/14 01:46:29;;;;;;;55.77;48.70;;;;;;;-5.05;100.00;100567.78;5104368;27;20464;-47
2022/12/14 01:49:02;;;;;;;62.67;49.60;;;;;;;-5.05;100.00;100560.00;5106309;28;20449;-49
2022/12/14 01:51:31;;;;;;;54.07;48.17;;;;;;;-5.07;100.00;100555.84;5092259;28;20434;-46
2022/12/14 01:54:01;;;;;;;52.83;47.10;;;;;;;-5.09;100.00;100555.94;5091635;28;20832;-53
2022/12/14 01:56:31;;;;;;;54.87;47.07;;;;;;;-5.08;100.00;100567.19;5091640;28;20479;-49
2022/12/14 01:59:05;;;;;;;56.13;47.63;;;;;;;-5.08;100.00;100560.19;5092486;28;20460;-47
2022/12/14 02:01:33;;;;;;;61.10;48.37;;;;;;;-5.06;100.00;100560.09;5092257;28;20536;-48
2022/12/14 02:04:03;;;;;;;57.77;50.63;;;;;;;-5.06;100.00;100565.31;5092202;28;20516;-51
2022/12/14 02:06:35;;;;;;;59.97;49.57;;;;;;;-5.05;100.00;100560.00;5091624;28;20571;-50
2022/12/14 02:09:06;;;;;;;54.37;48.07;;;;;;;-5.06;100.00;100555.75;5092179;28;20809;-47
2022/12/14 02:11:44;;;;;;;52.77;47.80;;;;;;;-5.07;100.00;100546.28;5092217;28;20429;-48
2022/12/14 02:14:12;;;;;;;52.83;47.07;;;;;;;-5.07;100.00;100551.47;5091994;28;20469;-50
2022/12/14 02:16:40;;;;;;;65.17;46.67;;;;;;;-5.07;100.00;100546.28;5091285;28;20465;-52
2022/12/14 02:19:09;;;;;;;55.07;46.70;;;;;;;-5.06;100.00;100542.75;5110320;28;20444;-52
2022/12/14 02:21:59;;;;;;;51.00;45.80;;;;;;;-5.07;100.00;100541.06;5092089;28;20440;-49
2022/12/14 02:25:00;;;;;;;54.50;47.47;;;;;;;-5.07;100.00;100528.06;5091925;28;20425;-49
2022/12/14 02:27:43;;;;;;;53.97;47.07;;;;;;;-5.06;100.00;100528.91;5091956;28;20445;-50
2022/12/14 02:33:49;;;;;;;56.10;47.17;;;;;;;-5.09;100.00;100526.50;5091539;28;20513;-48
2022/12/14 02:36:24;;;;;;;52.07;46.03;;;;;;;-5.10;100.00;100523.06;5091177;28;20460;-48
2022/12/14 02:39:04;;;;;;;49.90;44.80;;;;;;;-5.10;100.00;100530.88;5091671;28;20449;-47
2022/12/14 02:41:38;;;;;;;54.60;46.47;;;;;;;-5.11;100.00;100525.78;5091649;28;20532;-47
2022/12/14 02:44:16;;;;;;;52.10;45.63;;;;;;;-5.11;100.00;100528.38;5091765;28;20425;-48
2022/12/14 02:46:51;;;;;;;51.97;46.30;;;;;;;-5.13;100.00;100528.47;5090962;28;20472;-47
2022/12/14 02:49:38;;;;;;;57.50;47.37;;;;;;;-5.14;100.00;100508.59;5091595;28;20460;-47
2022/12/14 02:52:11;;;;;;;50.40;44.87;;;;;;;-5.13;100.00;100512.88;5092070;28;20444;-49
2022/12/14 02:54:44;;;;;;;55.63;47.30;;;;;;;-5.15;100.00;100508.72;5091555;28;20481;-47
2022/12/14 02:57:19;;;;;;;51.57;46.00;;;;;;;-5.17;100.00;100505.41;5091678;28;20801;-47
2022/12/14 02:59:52;;;;;;;51.47;46.00;;;;;;;-5.18;100.00;100496.75;5091408;28;20441;-48
2022/12/14 03:02:21;;;;;;;59.23;47.83;;;;;;;-5.21;100.00;100503.94;5091484;28;20425;-48
2022/12/14 03:04:49;;;;;;;49.17;43.90;;;;;;;-5.23;100.00;100511.00;5092436;28;20521;-49
2022/12/14 03:07:36;;;;;;;54.27;48.53;;;;;;;-5.22;100.00;100515.25;5095734;28;20433;-48
2022/12/14 03:10:09;;;;;;;51.60;46.40;;;;;;;-5.25;100.00;100510.25;5095588;28;20541;-49
2022/12/14 03:12:40;;;;;;;56.43;45.40;;;;;;;-5.27;100.00;100496.53;5095786;28;20410;-51
2022/12/14 03:15:11;;;;;;;54.00;47.40;;;;;;;-5.30;100.00;100494.16;5094644;28;20467;-48
2022/12/14 03:17:42;;;;;;;49.57;44.33;;;;;;;-5.32;100.00;100502.06;5101310;28;20919;-49
2022/12/14 03:20:19;;;;;;;57.50;47.57;;;;;;;-5.35;100.00;100497.06;5115568;28;20454;-46
2022/12/14 03:22:52;;;;;;;52.90;46.27;;;;;;;-5.38;100.00;100492.06;5115712;28;20436;-48
2022/12/14 03:25:24;;;;;;;48.60;43.30;;;;;;;-5.42;100.00;100487.16;5114929;27;20452;-48
2022/12/14 03:27:58;;;;;;;56.77;44.47;;;;;;;-5.47;100.00;100469.28;5115822;28;20428;-51
2022/12/14 03:30:26;;;;;;;50.37;45.20;;;;;;;-5.54;100.00;100457.63;5115623;28;20480;-46
2022/12/14 03:33:21;;;;;;;50.67;43.67;;;;;;;-5.63;100.00;100466.03;5109880;28;20425;-50
2022/12/14 03:35:57;;;;;;;53.60;45.00;;;;;;;-5.69;100.00;100480.25;5109838;27;20460;-50
2022/12/14 03:38:32;;;;;;;49.10;43.80;;;;;;;-5.75;100.00;100487.59;5113466;28;20424;-50
2022/12/14 03:41:08;;;;;;;53.77;44.10;;;;;;;-5.72;100.00;100495.19;5112746;28;21137;-48
2022/12/14 03:43:42;;;;;;;58.37;46.57;;;;;;;-5.69;100.00;100495.00;5114127;28;20791;-48
2022/12/14 03:46:27;;;;;;;50.20;44.90;;;;;;;-5.71;100.00;100494.28;5113796;27;20460;-49
2022/12/14 03:49:06;;;;;;;49.47;43.27;;;;;;;-5.71;100.00;100484.72;5115099;28;20463;-49
2022/12/14 03:51:40;;;;;;;54.97;45.60;;;;;;;-5.71;100.00;100483.88;5115182;28;20424;-48
2022/12/14 03:54:16;;;;;;;49.00;43.60;;;;;;;-5.73;100.00;100485.72;5115148;28;20472;-48
2022/12/14 03:56:51;;;;;;;56.07;46.03;;;;;;;-5.76;100.00;100488.53;5114448;27;20812;-49
2022/12/14 03:59:26;;;;;;;53.40;45.57;;;;;;;-5.77;100.00;100479.09;5115126;28;20448;-50
2022/12/14 04:01:59;;;;;;;54.90;41.87;;;;;;;-5.77;100.00;100484.28;5114870;28;20431;-50
2022/12/14 04:04:34;;;;;;;50.10;44.80;;;;;;;-5.76;100.00;100480.75;5114915;28;20424;-47
2022/12/14 04:07:10;;;;;;;48.43;43.33;;;;;;;-5.77;100.00;100473.91;5114169;27;20460;-47
2022/12/14 04:09:48;;;;;;;49.90;42.60;;;;;;;-5.77;100.00;100473.91;5114771;28;20448;-49
2022/12/14 04:20:51;;;;;;;50.00;43.90;;;;;;;-5.82;100.00;100444.78;5107367;28;20432;-48
2022/12/14 04:26:07;;;;;;;48.87;41.33;;;;;;;-5.89;100.00;100447.00;5113544;27;20997;-47
2022/12/14 04:31:28;;;;;;;46.00;41.17;;;;;;;-5.93;100.00;100440.31;5114301;28;20444;-46
2022/12/14 04:34:01;;;;;;;53.10;42.27;;;;;;;-5.93;100.00;100450.72;5114232;28;20939;-48
2022/12/14 04:36:33;;;;;;;52.10;44.10;;;;;;;-5.97;100.00;100446.63;5113494;27;20470;-48
2022/12/14 04:39:05;;;;;;;50.30;42.10;;;;;;;-5.97;100.00;100446.63;5114347;28;20547;-47
2022/12/14 04:41:38;;;;;;;50.23;43.10;;;;;;;-5.97;100.00;100448.44;5114185;28;20531;-49
2022/12/14 04:44:11;;;;;;;45.97;39.20;;;;;;;-6.00;100.00;100440.84;5114182;28;20421;-50
2022/12/14 04:46:40;;;;;;;46.97;40.77;;;;;;;-6.00;100.00;100440.84;5113358;27;20457;-47
2022/12/14 04:49:16;;;;;;;46.30;41.40;;;;;;;-6.02;100.00;100433.13;5114030;28;20466;-50
2022/12/14 04:51:51;;;;;;;47.33;42.20;;;;;;;-6.02;100.00;100429.69;5113964;28;20424;-48
2022/12/14 04:54:23;;;;;;;46.20;41.20;;;;;;;-6.04;100.00;100434.16;5113040;28;20424;-48
2022/12/14 04:56:59;;;;;;;46.80;41.40;;;;;;;-6.06;100.00;100436.03;5112810;27;20826;-52
2022/12/14 04:59:28;;;;;;;52.00;42.87;;;;;;;-6.06;100.00;100442.03;5114067;28;20449;-51
2022/12/14 05:02:08;;;;;;;52.33;42.03;;;;;;;-6.11;100.00;100441.50;5113878;28;20436;-49
2022/12/14 05:04:53;;;;;;;47.30;42.00;;;;;;;-6.13;100.00;100432.16;5113640;28;20425;-47
2022/12/14 05:07:34;;;;;;;48.33;40.93;;;;;;;-6.15;100.00;100427.06;5113508;28;20448;-47
2022/12/14 05:10:06;;;;;;;52.30;42.80;;;;;;;-6.19;100.00;100429.03;5113731;28;20462;-47
2022/12/14 05:12:40;;;;;;;43.73;39.13;;;;;;;-6.20;100.00;100414.38;5113769;28;20429;-48
2022/12/14 05:15:13;;;;;;;45.07;40.40;;;;;;;-6.21;100.00;100417.91;5112784;27;20959;-47
2022/12/14 05:17:41;;;;;;;46.70;42.10;;;;;;;-6.22;100.00;100405.03;5113356;27;20800;-52
2022/12/14 05:20:15;;;;;;;46.73;39.17;;;;;;;-6.24;100.00;100401.69;5105009;28;20449;-49
2022/12/14 05:22:44;;;;;;;53.07;42.80;;;;;;;-6.24;100.00;100402.53;5093198;28;20432;-49
2022/12/14 05:25:11;;;;;;;46.90;41.80;;;;;;;-6.26;100.00;100396.63;5092330;28;20454;-53
2022/12/14 05:27:39;;;;;;;47.67;38.37;;;;;;;-6.28;100.00;100393.31;5092700;28;20434;-47
2022/12/14 05:30:08;;;;;;;46.20;41.50;;;;;;;-6.30;100.00;100391.75;5092702;28;20816;-48
2022/12/14 05:32:36;;;;;;;44.77;40.10;;;;;;;-6.33;100.00;100392.75;5092649;28;20436;-46
2022/12/14 05:35:04;;;;;;;45.57;40.67;;;;;;;-6.36;100.00;100382.56;5092155;28;20464;-49
2022/12/14 05:37:32;;;;;;;42.00;37.43;;;;;;;-6.36;100.00;100381.75;5092614;28;20458;-47
2022/12/14 05:40:01;;;;;;;43.20;38.80;;;;;;;-6.39;100.00;100397.53;5092592;28;20548;-48
2022/12/14 05:42:30;;;;;;;43.20;39.07;;;;;;;-6.38;100.00;100393.97;5092861;28;20436;-47
2022/12/14 05:44:58;;;;;;;42.87;38.53;;;;;;;-6.40;100.00;100388.91;5091953;28;20518;-51
2022/12/14 05:47:27;;;;;;;43.37;38.53;;;;;;;-6.40;100.00;100390.66;5092881;28;20436;-54
2022/12/14 05:49:54;;;;;;;44.17;39.27;;;;;;;-6.38;100.00;100397.41;5092166;28;20984;-53
2022/12/14 05:52:24;;;;;;;44.30;37.60;;;;;;;-6.38;100.00;100397.41;5092421;28;20429;-54
2022/12/14 05:54:52;;;;;;;42.33;37.90;;;;;;;-6.39;100.00;100393.13;5091946;28;20456;-49
2022/12/14 05:57:24;;;;;;;42.50;38.07;;;;;;;-6.36;100.00;100403.31;5092267;28;20435;-48
2022/12/14 05:59:52;;;;;;;49.77;43.53;;;;;;;-6.37;100.00;100406.88;5092442;28;20453;-50
2022/12/14 06:02:20;;;;;;;45.50;39.50;;;;;;;-6.38;100.00;100400.00;5092213;28;20940;-52
2022/12/14 06:04:47;;;;;;;45.07;40.37;;;;;;;-6.40;100.00;100396.69;5091685;28;20432;-52
2022/12/14 06:07:15;;;;;;;45.93;38.87;;;;;;;-6.42;100.00;100387.34;5092051;28;20471;-51
2022/12/14 06:09:43;;;;;;;45.13;40.50;;;;;;;-6.46;100.00;100391.88;5091965;28;20913;-48
2022/12/14 06:12:10;;;;;;;43.57;39.20;;;;;;;-6.48;100.00;100382.53;5092049;28;20444;-49
2022/12/14 06:14:39;;;;;;;48.73;39.37;;;;;;;-6.52;100.00;100399.22;5091911;28;20426;-49
2022/12/14 06:17:07;;;;;;;45.23;40.53;;;;;;;-6.54;100.00;100398.47;5093341;28;20473;-52
2022/12/14 06:19:35;;;;;;;43.80;39.77;;;;;;;-6.55;100.00;100373.47;5112020;28;20449;-48
2022/12/14 06:22:02;;;;;;;44.33;39.93;;;;;;;-6.56;100.00;100371.78;5112202;28;20441;-47
2022/12/14 06:24:30;;;;;;;42.43;38.20;;;;;;;-6.56;100.00;100367.44;5112071;28;20459;-48
2022/12/14 06:26:57;;;;;;;45.10;40.30;;;;;;;-6.57;100.00;100373.56;5111616;27;20474;-52
2022/12/14 06:29:25;;;;;;;42.70;38.17;;;;;;;-6.61;100.00;100377.28;5112320;28;20468;-52
2022/12/14 06:31:54;;;;;;;42.30;38.23;;;;;;;-6.64;100.00;100374.88;5112294;28;20440;-48
2022/12/14 06:34:22;;;;;;;42.97;38.73;;;;;;;-6.65;100.00;100370.63;5112077;28;20438;-55
2022/12/14 06:36:55;;;;;;;41.77;37.57;;;;;;;-6.68;100.00;100370.81;5111405;27;20473;-46
2022/12/14 06:39:22;;;;;;;44.73;40.57;;;;;;;-6.69;100.00;100368.31;5111797;28;20484;-51
2022/12/14 06:41:50;;;;;;;43.40;39.40;;;;;;;-6.72;100.00;100364.97;5112415;28;20504;-46
2022/12/14 06:44:18;;;;;;;41.53;37.20;;;;;;;-6.73;100.00;100372.88;5111983;28;20464;-49
2022/12/14 06:46:46;;;;;;;43.47;39.10;;;;;;;-6.73;100.00;100372.88;5111280;27;20456;-47
2022/12/14 06:49:15;;;;;;;41.93;37.93;;;;;;;-6.74;100.00;100372.03;5111746;28;20460;-48
2022/12/14 06:51:44;;;;;;;43.13;38.77;;;;;;;-6.75;100.00;100375.53;5111890;28;20432;-50
2022/12/14 06:54:12;;;;;;;43.33;38.97;;;;;;;-6.72;100.00;100383.13;5112208;28;20429;-48
2022/12/14 06:56:41;;;;;;;42.00;37.40;;;;;;;-6.71;100.00;100373.59;5111203;27;20473;-47
2022/12/14 06:59:09;;;;;;;41.73;37.33;;;;;;;-6.69;100.00;100363.97;5111901;28;20448;-53
2022/12/14 07:01:37;;;;;;;41.83;37.50;;;;;;;-6.69;100.00;100363.16;5111908;28;20428;-51
2022/12/14 07:04:06;;;;;;;44.07;38.93;;;;;;;-6.72;100.00;100359.78;5111786;28;20431;-48
2022/12/14 07:06:37;;;;;;;42.50;38.23;;;;;;;-6.74;100.00;100355.63;5111169;27;20456;-48
2022/12/14 07:09:06;;;;;;;43.47;39.07;;;;;;;-6.76;100.00;100362.69;5111929;28;20445;-50
2022/12/14 07:11:34;;;;;;;41.37;37.60;;;;;;;-6.77;100.00;100363.59;5111800;28;20428;-49
2022/12/14 07:14:04;;;;;;;46.10;39.97;;;;;;;-6.78;100.00;100364.56;5111841;28;20800;-49
2022/12/14 07:16:34;;;;;;;38.70;35.30;;;;;;;-6.81;100.00;100365.56;5110915;27;20473;-46
2022/12/14 07:19:02;;;;;;;40.13;36.70;;;;;;;-6.83;100.00;100374.34;5111575;28;21003;-49
2022/12/14 07:21:30;;;;;;;44.10;39.57;;;;;;;-6.84;100.00;100376.13;5111878;28;20428;-49
2022/12/14 07:23:59;;;;;;;55.80;37.47;;;;;;;-6.83;100.00;100371.78;5111790;28;20801;-48
2022/12/14 07:26:28;;;;;;;42.83;38.37;;;;;;;-6.83;100.00;100369.19;5110891;27;20461;-47
2022/12/14 07:28:57;;;;;;;39.60;36.03;;;;;;;-6.84;100.00;100368.34;5111529;28;21007;-47
2022/12/14 07:31:27;;;;;;;40.47;36.40;;;;;;;-6.82;100.00;100369.09;5111547;28;20965;-47
2022/12/14 07:33:56;;;;;;;40.10;36.60;;;;;;;-6.82;100.00;100366.50;5111940;28;20454;-47
2022/12/14 07:36:26;;;;;;;42.10;37.40;;;;;;;-6.81;100.00;100375.13;5110938;27;20476;-50
2022/12/14 07:38:55;;;;;;;41.27;35.93;;;;;;;-6.81;100.00;100380.31;5111641;28;20451;-51
2022/12/14 07:41:26;;;;;;;43.03;38.93;;;;;;;-6.80;100.00;100374.16;5111790;28;20436;-48
2022/12/14 07:43:55;;;;;;;39.27;35.77;;;;;;;-6.78;100.00;100364.56;5111442;28;20520;-49
2022/12/14 07:46:24;;;;;;;38.00;34.50;;;;;;;-6.76;100.00;100368.72;5110891;27;20461;-47
2022/12/14 07:48:54;;;;;;;39.40;35.30;;;;;;;-6.71;100.00;100360.63;5111422;28;20854;-50
2022/12/14 07:51:24;;;;;;;38.23;34.70;;;;;;;-6.67;100.00;100367.31;5112358;28;20531;-46
2022/12/14 07:53:52;;;;;;;37.47;33.87;;;;;;;-6.63;100.00;100368.75;5115183;28;20421;-46
2022/12/14 07:56:21;;;;;;;38.70;35.50;;;;;;;-6.61;100.00;100374.69;5114275;27;20476;-47
2022/12/14 07:58:51;;;;;;;38.93;35.17;;;;;;;-6.55;100.00;100370.88;5115082;28;20449;-46
2022/12/14 08:01:21;;;;;;;36.90;33.73;;;;;;;-6.50;100.00;100379.19;5115101;28;20783;-46
2022/12/14 08:03:51;;;;;;;37.60;33.90;;;;;;;-6.47;100.00;100385.00;5114922;28;20412;-47
2022/12/14 08:06:21;;;;;;;40.63;36.63;;;;;;;-6.43;100.00;100383.06;5114208;27;20457;-49
2022/12/14 08:08:49;;;;;;;37.73;34.07;;;;;;;-6.39;100.00;100384.53;5114613;28;20447;-45
2022/12/14 08:11:17;;;;;;;38.87;34.70;;;;;;;-6.35;100.00;100383.41;5114906;28;20429;-47
2022/12/14 08:13:45;;;;;;;38.80;34.57;;;;;;;-6.35;100.00;100381.63;5114859;28;20421;-47
2022/12/14 08:16:16;;;;;;;36.87;33.10;;;;;;;-6.29;100.00;100368.28;5113809;27;20563;-47
2022/12/14 08:18:44;;;;;;;38.43;34.83;;;;;;;-6.26;100.00;100360.28;5114380;28;20815;-46
2022/12/14 08:21:13;;;;;;;38.73;35.30;;;;;;;-6.23;100.00;100359.25;5097587;28;20436;-47
2022/12/14 08:23:41;;;;;;;38.47;34.77;;;;;;;-6.21;100.00;100368.59;5094146;28;20429;-47
2022/12/14 08:26:08;;;;;;;39.07;35.40;;;;;;;-6.20;100.00;100366.84;5093555;28;20504;-46
2022/12/14 08:28:36;;;;;;;36.77;32.97;;;;;;;-6.16;100.00;100373.50;5094034;28;20429;-48
2022/12/14 08:31:06;;;;;;;38.07;34.77;;;;;;;-6.16;100.00;100376.09;5094233;28;20436;-47
2022/12/14 08:33:37;;;;;;;36.40;32.87;;;;;;;-6.11;100.00;100365.41;5093886;28;20432;-47
2022/12/14 08:36:06;;;;;;;36.83;33.50;;;;;;;-6.05;100.00;100370.19;5093398;28;20454;-46
2022/12/14 08:38:34;;;;;;;39.00;35.40;;;;;;;-6.01;100.00;100375.09;5094086;28;20545;-46
2022/12/14 08:41:03;;;;;;;37.63;34.20;;;;;;;-5.98;100.00;100366.28;5093792;28;20430;-47
2022/12/14 08:43:31;;;;;;;37.10;33.73;;;;;;;-5.97;100.00;100362.75;5093798;28;20430;-46
2022/12/14 08:45:59;;;;;;;39.20;35.70;;;;;;;-5.91;100.00;100363.16;5093083;28;20466;-46
2022/12/14 08:48:27;;;;;;;36.67;33.60;;;;;;;-5.85;100.00;100369.72;5093321;28;20461;-48
2022/12/14 08:51:01;;;;;;;38.40;34.90;;;;;;;-5.82;100.00;100364.28;5093529;28;20979;-51
2022/12/14 08:53:29;;;;;;;36.80;33.47;;;;;;;-5.72;100.00;100365.34;5093925;28;20430;-53
2022/12/14 08:55:57;;;;;;;37.10;33.30;;;;;;;-5.63;100.00;100368.16;5092665;28;20545;-53
2022/12/14 08:58:25;;;;;;;35.13;32.30;;;;;;;-5.58;100.00;100361.84;5093267;28;20476;-54
2022/12/14 09:01:00;;;;;;;38.20;34.20;;;;;;;-5.49;100.00;100354.22;5093263;28;20430;-51
2022/12/14 09:03:28;;;;;;;35.80;32.83;;;;;;;-5.40;100.00;100363.16;5092907;28;20962;-46
2022/12/14 09:06:01;;;;;;;35.67;32.77;;;;;;;-5.35;100.00;100364.53;5092739;28;20548;-51
2022/12/14 09:08:29;;;;;;;33.43;30.93;;;;;;;-5.27;100.00;100364.81;5093306;28;20425;-48
2022/12/14 09:10:57;;;;;;;35.20;32.47;;;;;;;-5.22;100.00;100360.13;5093119;28;20438;-49
2022/12/14 09:13:24;;;;;;;36.23;33.23;;;;;;;-5.09;100.00;100362.72;5093230;28;20437;-48
2022/12/14 09:15:57;;;;;;;34.83;31.87;;;;;;;-5.00;100.00;100366.44;5092564;28;20530;-53
2022/12/14 09:18:25;;;;;;;36.30;33.30;;;;;;;-4.91;100.00;100365.81;5105555;28;20473;-48
2022/12/14 09:20:54;;;;;;;36.57;33.13;;;;;;;-4.84;100.00;100359.25;5099081;28;20478;-50
2022/12/14 09:23:24;;;;;;;36.53;32.93;;;;;;;-4.73;100.00;100362.75;5092890;28;20520;-51
2022/12/14 09:26:00;;;;;;;38.10;34.80;;;;;;;-4.65;100.00;100364.78;5092064;28;20883;-50
2022/12/14 09:28:29;;;;;;;36.80;34.00;;;;;;;-4.56;100.00;100357.16;5092921;28;20429;-51
2022/12/14 09:30:58;;;;;;;39.73;35.87;;;;;;;-4.43;100.00;100354.50;5092783;28;20440;-51
2022/12/14 09:33:26;;;;;;;36.10;33.27;;;;;;;-4.37;100.00;100355.84;5092824;28;20791;-51
2022/12/14 09:36:00;;;;;;;36.50;33.20;;;;;;;-4.32;100.00;100351.97;5092018;28;20473;-51
2022/12/14 09:38:30;;;;;;;36.27;33.23;;;;;;;-4.30;100.00;100357.06;5092198;28;20568;-52
2022/12/14 09:41:00;;;;;;;34.40;31.80;;;;;;;-4.29;100.00;100359.53;5107360;28;20516;-49
2022/12/14 09:43:40;;;;;;;36.47;33.20;;;;;;;-4.21;100.00;100361.59;5093087;28;20457;-53
2022/12/14 09:46:31;;;;;;;36.50;33.20;;;;;;;-4.12;100.00;100366.13;5092036;28;20457;-51
2022/12/14 09:49:02;;;;;;;36.97;34.10;;;;;;;-4.01;100.00;100359.19;5092186;28;20461;-52
2022/12/14 09:51:33;;;;;;;37.73;34.33;;;;;;;-3.92;100.00;100349.88;5092559;28;20444;-51
2022/12/14 09:54:07;;;;;;;38.10;34.53;;;;;;;-3.88;100.00;100351.28;5092520;28;20480;-51
2022/12/14 09:56:37;;;;;;;36.90;33.70;;;;;;;-3.83;100.00;100350.94;5091789;28;20461;-48
2022/12/14 09:59:05;;;;;;;36.03;32.80;;;;;;;-3.73;100.00;100347.53;5092117;28;20540;-53
2022/12/14 10:01:53;;;;;;;35.90;33.10;;;;;;;-3.60;100.00;100337.84;5092428;28;20528;-50
2022/12/14 10:04:52;;;;;;;36.13;32.47;;;;;;;-3.46;100.00;100327.19;5091516;28;20890;-53
2022/12/14 10:07:27;;;;;;;35.17;31.20;;;;;;;-3.38;100.00;100337.06;5092168;28;20448;-55
2022/12/14 10:10:05;;;;;;;35.93;32.87;;;;;;;-3.36;100.00;100325.56;5092348;28;20457;-51
2022/12/14 10:12:47;;;;;;;35.10;32.40;;;;;;;-3.24;100.00;100326.38;5092167;28;20810;-51
2022/12/14 10:15:24;;;;;;;35.07;32.10;;;;;;;-3.17;100.00;100321.53;5090807;28;20457;-51
2022/12/14 10:18:12;;;;;;;32.23;29.47;;;;;;;-3.08;100.00;100321.63;5099714;28;20472;-49
2022/12/14 10:21:04;;;;;;;31.90;29.57;;;;;;;-3.00;100.00;100314.03;5107238;28;20433;-50
2022/12/14 10:23:34;;;;;;;34.30;31.40;;;;;;;-2.91;100.00;100304.66;5112191;28;21002;-52
2022/12/14 10:26:07;;;;;;;32.67;30.13;;;;;;;-2.86;100.00;100300.72;5111773;27;20476;-51
2022/12/14 10:28:43;;;;;;;32.83;30.20;;;;;;;-2.76;100.00;100306.03;5111930;28;20451;-52
2022/12/14 10:31:14;;;;;;;31.17;28.47;;;;;;;-2.67;100.00;100310.53;5112356;28;20424;-52
2022/12/14 10:33:44;;;;;;;31.43;28.83;;;;;;;-2.59;100.00;100305.50;5112483;28;20780;-49
2022/12/14 10:36:20;;;;;;;30.63;28.23;;;;;;;-2.47;100.00;100303.69;5111589;27;20460;-50
2022/12/14 10:38:56;;;;;;;31.80;29.30;;;;;;;-2.43;100.00;100298.09;5112484;28;20590;-51
2022/12/14 10:41:33;;;;;;;30.87;27.83;;;;;;;-2.34;100.00;100288.69;5112273;28;20432;-52
2022/12/14 10:44:09;;;;;;;32.47;29.77;;;;;;;-2.29;100.00;100289.97;5112211;28;20435;-52
2022/12/14 10:46:44;;;;;;;30.73;28.03;;;;;;;-2.21;100.00;100289.31;5111483;27;20456;-50
2022/12/14 10:49:17;;;;;;;30.63;27.93;;;;;;;-2.14;100.00;100287.88;5111723;28;20452;-53
2022/12/14 10:51:49;;;;;;;30.57;28.20;;;;;;;-2.07;100.00;100293.44;5112230;28;20429;-51
2022/12/14 10:54:26;;;;;;;30.53;27.90;;;;;;;-1.98;100.00;100288.28;5112159;28;20828;-53
2022/12/14 10:56:55;;;;;;;29.97;27.40;;;;;;;-1.92;100.00;100298.22;5111287;27;20550;-51
2022/12/14 10:59:35;;;;;;;29.60;27.10;;;;;;;-1.86;100.00;100282.03;5111755;28;20477;-51
2022/12/14 11:02:16;;;;;;;29.83;27.33;;;;;;;-1.76;100.00;100289.91;5111942;28;20424;-51
2022/12/14 11:04:49;;;;;;;29.37;27.23;;;;;;;-1.69;100.00;100289.25;5111173;27;20435;-53
2022/12/14 11:07:19;;;;;;;28.87;26.50;;;;;;;-1.63;100.00;100279.25;5111896;28;20424;-51
2022/12/14 11:09:47;;;;;;;32.17;29.73;;;;;;;-1.63;100.00;100276.63;5112227;28;20448;-52
2022/12/14 11:12:24;;;;;;;29.87;27.50;;;;;;;-1.58;100.00;100277.09;5111955;28;20448;-53
2022/12/14 11:14:55;;;;;;;29.83;27.23;;;;;;;-1.55;100.00;100277.63;5111272;27;20507;-51
2022/12/14 11:17:36;;;;;;;29.40;27.23;;;;;;;-1.51;100.00;100284.25;5111709;28;20429;-52
2022/12/14 11:20:17;;;;;;;30.17;27.60;;;;;;;-1.46;100.00;100276.84;5104328;28;20437;-51
2022/12/14 11:22:46;;;;;;;29.13;26.90;;;;;;;-1.40;100.00;100275.47;5091547;28;20429;-51
2022/12/14 11:25:33;;;;;;;29.20;26.90;;;;;;;-1.32;100.00;100270.44;5091124;28;20457;-53
2022/12/14 11:28:15;;;;;;;28.93;26.73;;;;;;;-1.27;100.00;100260.41;5095818;28;20908;-48
2022/12/14 11:30:53;;;;;;;29.70;27.40;;;;;;;-1.22;100.00;100263.44;5095216;28;20555;-46
2022/12/14 11:33:21;;;;;;;27.83;25.90;;;;;;;-1.18;100.00;100260.44;5095651;28;20525;-48
2022/12/14 11:35:50;;;;;;;29.57;27.37;;;;;;;-1.09;100.00;100263.22;5094930;28;20489;-46
2022/12/14 11:38:18;;;;;;;28.60;26.20;;;;;;;-1.03;100.00;100258.28;5095298;28;20542;-49
2022/12/14 11:40:47;;;;;;;30.07;27.37;;;;;;;-0.96;100.00;100264.63;5095281;28;20436;-49